Terminal Aerodrome Forecast
Issued by NWS

Home | Current Version | Previous Version | Text Only | Print | Product List | Glossary On
Versions: 1 2 3 4 5 6 7 8 9 10 11 12 13 14 15 16 17 18 19 20 21 22 23 24 25 26 27 28
455
FTUS41 KGYX 250850 AAA
TAFAUG
TAF AMD
KAUG 250850Z 2509/2606 20006KT P6SM SKC WS020/27035KT
     FM251400 27014G23KT P6SM SCT250
     FM260000 26007KT P6SM BKN050=

USA.gov is the U.S. government's official web portal to all federal, state and local government web resources and services.